createdAt,value
2023-01-23T00:03:41.590Z,82.68
2023-01-23T00:07:44.692Z,82.82
2023-01-23T00:11:47.809Z,82.74
2023-01-23T00:15:52.662Z,82.89
2023-01-23T00:19:55.973Z,82.81
2023-01-23T00:24:01.478Z,82.88
2023-01-23T00:28:05.069Z,82.93
2023-01-23T00:32:09.728Z,83.15
2023-01-23T00:36:15.019Z,83.27
2023-01-23T00:40:18.523Z,83.38
2023-01-23T00:44:21.888Z,83.37
2023-01-23T00:48:26.558Z,83.44
2023-01-23T00:52:30.351Z,83.50
2023-01-23T00:56:33.818Z,83.39
2023-01-23T01:00:37.146Z,83.69
2023-01-23T01:04:41.689Z,83.82
2023-01-23T01:08:44.853Z,83.73
2023-01-23T01:12:47.957Z,84.07
2023-01-23T01:16:51.122Z,84.15
2023-01-23T01:20:56.269Z,84.26
2023-01-23T01:24:59.373Z,84.27
2023-01-23T01:29:02.492Z,84.02
2023-01-23T01:33:05.746Z,84.20
2023-01-23T01:37:10.163Z,84.35
2023-01-23T01:41:14.590Z,84.45
2023-01-23T01:45:54.990Z,84.19
2023-01-23T01:50:01.247Z,84.23
2023-01-23T01:54:10.926Z,84.07
2023-01-23T01:58:15.191Z,83.79
2023-01-23T02:02:23.738Z,84.13
2023-01-23T02:06:27.555Z,84.14
2023-01-23T02:10:32.498Z,84.07
2023-01-23T02:14:36.385Z,84.17
2023-01-23T02:18:44.695Z,84.29
2023-01-23T02:22:54.002Z,84.43
2023-01-23T02:26:58.486Z,84.75
2023-01-23T02:31:02.746Z,84.63
2023-01-23T02:35:12.820Z,84.97
2023-01-23T02:39:19.209Z,84.85
2023-01-23T02:43:35.284Z,84.88
2023-01-23T02:47:41.504Z,85.04
2023-01-23T02:51:44.643Z,85.02
2023-01-23T02:55:47.664Z,85.17
2023-01-23T03:00:09.986Z,85.12
2023-01-23T03:04:13.091Z,84.96
2023-01-23T03:08:16.061Z,85.11
2023-01-23T03:12:20.440Z,85.26
2023-01-23T03:16:24.895Z,85.41
2023-01-23T03:20:28.747Z,85.43
2023-01-23T03:24:35.049Z,85.49
2023-01-23T03:28:55.730Z,85.67
2023-01-23T03:33:00.222Z,85.88
2023-01-23T03:37:04.443Z,85.62
2023-01-23T03:41:23.376Z,85.89
2023-01-23T03:45:27.297Z,86.22
2023-01-23T03:49:32.358Z,86.09
2023-01-23T03:53:35.740Z,86.20
2023-01-23T03:57:41.819Z,86.53
2023-01-23T04:02:04.898Z,86.42
2023-01-23T04:06:11.268Z,86.63
2023-01-23T04:10:14.655Z,86.74
2023-01-23T04:14:18.731Z,86.75
2023-01-23T04:18:21.955Z,86.49
2023-01-23T04:22:26.395Z,86.82
2023-01-23T04:26:29.454Z,86.93
2023-01-23T04:30:32.683Z,86.96
2023-01-23T04:34:42.279Z,86.82
2023-01-23T04:38:47.479Z,87.03
2023-01-23T04:42:57.065Z,87.02
2023-01-23T04:47:08.656Z,87.12
2023-01-23T04:51:11.805Z,87.23
2023-01-23T04:55:16.594Z,87.35
2023-01-23T04:59:21.035Z,87.42
2023-01-23T05:03:24.647Z,87.41
2023-01-23T05:07:28.557Z,87.67
2023-01-23T05:11:43.906Z,87.88
2023-01-23T05:15:49.215Z,87.91
2023-01-23T05:19:53.307Z,88.26
2023-01-23T05:23:56.379Z,88.43
2023-01-23T05:28:00.963Z,88.48
2023-01-23T05:32:04.138Z,88.44
2023-01-23T05:36:13.268Z,88.55
2023-01-23T05:40:16.477Z,88.55
2023-01-23T05:44:40.803Z,88.52
2023-01-23T05:48:51.633Z,88.80
2023-01-23T05:52:56.323Z,88.54
2023-01-23T05:56:59.618Z,88.54
2023-01-23T06:01:29.749Z,88.50
2023-01-23T06:05:55.850Z,88.29
2023-01-23T06:09:59.100Z,88.06
2023-01-23T06:14:02.879Z,88.53
2023-01-23T06:18:07.649Z,88.41
2023-01-23T06:22:10.716Z,88.08
2023-01-23T06:26:31.934Z,87.92
2023-01-23T06:30:35.603Z,87.87
2023-01-23T06:34:43.142Z,87.76
2023-01-23T06:38:47.281Z,87.70
2023-01-23T06:42:55.800Z,87.69
2023-01-23T06:46:59.425Z,87.48
2023-01-23T06:51:04.636Z,87.54
2023-01-23T06:55:08.421Z,87.78
2023-01-23T06:59:11.635Z,87.14
2023-01-23T07:03:16.205Z,87.54
2023-01-23T07:07:20.814Z,87.30
2023-01-23T07:11:25.782Z,87.30
2023-01-23T07:15:32.411Z,87.21
2023-01-23T07:19:35.433Z,87.09
2023-01-23T07:23:43.895Z,86.95
2023-01-23T07:27:46.985Z,87.19
2023-01-23T07:31:50.111Z,86.91
2023-01-23T07:35:53.336Z,86.90
2023-01-23T07:39:57.738Z,86.84
2023-01-23T07:44:00.786Z,86.89
2023-01-23T07:48:04.043Z,86.81
2023-01-23T07:52:07.235Z,86.84
2023-01-23T07:56:11.726Z,86.81
2023-01-23T08:00:15.240Z,86.82
2023-01-23T08:04:18.476Z,87.15
2023-01-23T08:08:21.555Z,87.17
2023-01-23T08:12:26.077Z,87.46
2023-01-23T08:16:29.411Z,87.17
2023-01-23T08:20:32.476Z,86.97
2023-01-23T08:24:35.832Z,86.93
2023-01-23T08:28:40.431Z,86.97
2023-01-23T08:32:43.559Z,86.37
2023-01-23T08:36:46.890Z,86.44
2023-01-23T08:40:51.777Z,86.63
2023-01-23T08:44:56.287Z,86.45
2023-01-23T08:48:59.324Z,86.52
2023-01-23T08:53:02.334Z,86.41
2023-01-23T08:57:05.597Z,86.39
2023-01-23T09:01:14.001Z,86.80
2023-01-23T09:05:17.420Z,86.85
2023-01-23T09:09:20.423Z,86.72
2023-01-23T09:13:23.675Z,86.68
2023-01-23T09:17:28.500Z,86.63
2023-01-23T09:21:31.559Z,86.93
2023-01-23T09:25:34.593Z,87.00
2023-01-23T09:29:37.764Z,87.10
2023-01-23T09:33:43.054Z,87.39
2023-01-23T09:38:01.231Z,87.36
2023-01-23T09:42:08.463Z,86.96
2023-01-23T09:46:19.143Z,86.97
2023-01-23T09:50:28.977Z,86.83
2023-01-23T09:54:39.936Z,86.97
2023-01-23T09:58:47.420Z,87.63
2023-01-23T10:02:50.656Z,87.11
2023-01-23T10:07:18.317Z,87.10
2023-01-23T10:11:30.699Z,87.45
2023-01-23T10:15:52.769Z,87.31
2023-01-23T10:20:15.198Z,86.71
2023-01-23T10:24:40.596Z,86.69
2023-01-23T10:28:45.358Z,86.21
2023-01-23T10:32:52.655Z,85.90
2023-01-23T10:37:06.458Z,85.58
2023-01-23T10:41:21.148Z,85.60
2023-01-23T10:45:26.292Z,85.61
2023-01-23T10:49:31.417Z,85.81
2023-01-23T10:53:44.542Z,86.01
2023-01-23T10:57:51.091Z,85.78
2023-01-23T11:02:00.039Z,85.68
2023-01-23T11:06:05.312Z,85.77
2023-01-23T11:10:21.775Z,85.88
2023-01-23T11:14:26.122Z,85.67
2023-01-23T11:18:36.105Z,85.59
2023-01-23T11:22:42.199Z,85.11
2023-01-23T11:26:45.682Z,85.08
2023-01-23T11:31:00.887Z,84.96
2023-01-23T11:35:16.009Z,85.08
2023-01-23T11:39:32.308Z,85.16
2023-01-23T11:43:35.546Z,84.95
2023-01-23T11:48:00.931Z,85.10
2023-01-23T11:52:22.791Z,85.02
2023-01-23T11:56:44.970Z,85.16
2023-01-23T12:00:56.883Z,85.13
2023-01-23T12:05:24.529Z,84.75
2023-01-23T12:09:34.225Z,84.53
2023-01-23T12:13:50.451Z,84.42
2023-01-23T12:22:20.258Z,84.18
2023-01-23T12:26:27.079Z,84.36
2023-01-23T12:31:09.763Z,83.69
2023-01-23T12:35:28.088Z,84.18
2023-01-23T12:39:54.865Z,84.16
2023-01-23T12:44:03.447Z,83.93
2023-01-23T12:48:12.865Z,83.54
2023-01-23T12:52:24.416Z,83.19
2023-01-23T12:56:31.751Z,83.14
2023-01-23T13:00:55.312Z,83.29
2023-01-23T13:05:10.659Z,82.88
2023-01-23T13:09:23.862Z,83.24
2023-01-23T13:13:28.773Z,83.12
2023-01-23T13:17:37.771Z,82.89
2023-01-23T13:21:58.554Z,83.06
2023-01-23T13:26:31.427Z,82.93
2023-01-23T13:30:45.789Z,82.67
2023-01-23T13:34:48.823Z,82.42
2023-01-23T13:39:25.377Z,82.42
2023-01-23T13:43:44.288Z,82.12
2023-01-23T14:23:51.877Z,81.15
2023-01-23T14:28:04.505Z,81.42
2023-01-23T14:32:23.349Z,81.45
2023-01-23T14:36:26.405Z,81.18
2023-01-23T14:40:43.089Z,81.04
2023-01-23T14:44:53.254Z,80.64
2023-01-23T14:48:57.467Z,80.68
2023-01-23T14:53:02.355Z,81.11
2023-01-23T14:57:10.273Z,81.32
2023-01-23T15:01:13.496Z,81.08
2023-01-23T15:05:23.516Z,81.07
2023-01-23T15:09:31.210Z,81.84
2023-01-23T15:13:41.787Z,81.03
2023-01-23T15:17:45.658Z,80.78
2023-01-23T15:21:48.754Z,80.86
2023-01-23T15:26:10.651Z,81.21
2023-01-23T15:30:43.410Z,81.23
2023-01-23T15:34:55.004Z,80.94
2023-01-23T15:39:00.002Z,80.98
2023-01-23T15:43:05.762Z,80.91
2023-01-23T15:47:10.835Z,80.78
2023-01-23T15:51:14.426Z,80.92
2023-01-23T15:55:17.906Z,80.85
2023-01-23T15:59:21.583Z,80.95
2023-01-23T16:03:26.246Z,80.74
2023-01-23T16:07:34.435Z,80.80
2023-01-23T16:11:38.846Z,80.74
2023-01-23T16:15:42.020Z,80.84
2023-01-23T16:19:46.515Z,81.06
2023-01-23T16:23:49.828Z,80.88
2023-01-23T16:27:52.884Z,81.10
2023-01-23T16:31:57.003Z,80.97
2023-01-23T16:36:02.453Z,81.02
2023-01-23T16:40:06.309Z,81.03
2023-01-23T16:44:11.518Z,81.10
2023-01-23T16:48:25.373Z,80.99
2023-01-23T16:52:31.574Z,81.03
2023-01-23T16:56:39.107Z,80.96
2023-01-23T17:00:43.516Z,81.25
2023-01-23T17:04:46.894Z,81.78
2023-01-23T17:08:52.421Z,81.64
2023-01-23T17:12:58.174Z,81.52
2023-01-23T17:17:06.080Z,81.43
2023-01-23T17:21:15.191Z,81.30
2023-01-23T17:25:21.681Z,81.46
2023-01-23T17:29:24.793Z,81.69
2023-01-23T17:33:32.259Z,81.89
2023-01-23T17:37:36.314Z,81.75
2023-01-23T17:41:40.764Z,81.89
2023-01-23T17:45:45.857Z,82.09
2023-01-23T17:49:54.472Z,82.11
2023-01-23T17:53:58.981Z,82.11
2023-01-23T17:58:03.392Z,81.95
2023-01-23T18:02:23.858Z,82.15
2023-01-23T18:06:29.635Z,82.13
2023-01-23T18:10:35.130Z,82.13
2023-01-23T18:14:48.157Z,82.02
2023-01-23T18:18:53.940Z,82.10
2023-01-23T18:22:57.928Z,81.99
2023-01-23T18:27:09.874Z,82.08
2023-01-23T18:31:19.770Z,82.22
2023-01-23T18:35:35.207Z,82.34
2023-01-23T18:39:50.133Z,82.29
2023-01-23T18:44:03.664Z,82.50
2023-01-23T18:48:24.613Z,82.54
2023-01-23T18:52:42.600Z,82.54
2023-01-23T18:56:57.476Z,82.53
2023-01-23T19:01:16.213Z,82.55
2023-01-23T19:05:29.072Z,82.62
2023-01-23T19:09:35.236Z,82.84
2023-01-23T19:13:45.363Z,82.86
2023-01-23T19:17:52.287Z,82.73
2023-01-23T19:21:57.474Z,83.09
2023-01-23T19:26:00.968Z,82.97
2023-01-23T19:30:04.670Z,83.10
2023-01-23T19:34:08.519Z,83.11
2023-01-23T19:38:14.948Z,83.18
2023-01-23T19:42:18.055Z,83.13
2023-01-23T19:46:22.197Z,83.05
2023-01-23T19:50:25.260Z,83.11
2023-01-23T19:54:29.855Z,83.19
2023-01-23T19:58:33.024Z,83.44
2023-01-23T20:02:36.081Z,83.53
2023-01-23T20:06:40.824Z,83.55
2023-01-23T20:10:45.261Z,83.68
2023-01-23T20:14:48.681Z,83.63
2023-01-23T20:18:53.523Z,83.48
2023-01-23T20:22:56.568Z,83.35
2023-01-23T20:27:00.995Z,83.56
2023-01-23T20:31:08.644Z,83.43
2023-01-23T20:35:12.501Z,83.51
2023-01-23T20:39:16.245Z,83.54
2023-01-23T20:43:20.797Z,83.56
2023-01-23T20:47:23.884Z,83.87
2023-01-23T20:51:27.470Z,83.65
2023-01-23T20:55:30.472Z,83.49
2023-01-23T20:59:35.050Z,83.67
2023-01-23T21:03:40.273Z,83.76
2023-01-23T21:07:43.336Z,83.86
2023-01-23T21:11:46.413Z,83.83
2023-01-23T21:15:59.255Z,83.62
2023-01-23T21:20:02.412Z,83.54
2023-01-23T21:24:05.730Z,83.53
2023-01-23T21:28:08.874Z,83.50
2023-01-23T21:32:13.408Z,83.71
2023-01-23T21:36:19.091Z,83.82
2023-01-23T21:40:22.319Z,83.88
2023-01-23T21:44:25.329Z,83.88
2023-01-23T21:48:31.474Z,83.38
2023-01-23T21:52:34.529Z,83.54
2023-01-23T21:56:37.556Z,83.70
2023-01-23T22:00:58.330Z,83.91
2023-01-23T22:05:02.802Z,83.50
2023-01-23T22:09:06.844Z,83.43
2023-01-23T22:13:09.887Z,83.55
2023-01-23T22:17:12.898Z,83.35
2023-01-23T22:21:17.294Z,83.53
2023-01-23T22:25:20.526Z,83.62
2023-01-23T22:29:23.884Z,83.50
2023-01-23T22:33:39.481Z,83.60
2023-01-23T22:37:44.701Z,83.61
2023-01-23T22:41:48.483Z,83.62
2023-01-23T22:45:51.604Z,83.63
2023-01-23T22:49:54.597Z,83.58
2023-01-23T22:54:00.014Z,83.74
2023-01-23T22:58:03.067Z,83.89
2023-01-23T23:02:06.311Z,83.35
2023-01-23T23:06:12.121Z,83.33
2023-01-23T23:10:16.590Z,83.53
2023-01-23T23:14:19.970Z,83.21
2023-01-23T23:18:23.038Z,83.16
2023-01-23T23:22:26.135Z,83.05
2023-01-23T23:26:32.320Z,83.02
2023-01-23T23:30:35.353Z,82.96
2023-01-23T23:34:38.396Z,83.15
2023-01-23T23:38:41.451Z,83.15
2023-01-23T23:42:46.092Z,83.03
2023-01-23T23:46:49.121Z,83.09
2023-01-23T23:50:52.746Z,83.14
2023-01-23T23:54:55.737Z,82.86
2023-01-23T23:59:00.242Z,82.97
